sensor_id;sensor_type;location;lat;lon;timestamp;P1;durP1;ratioP1;P2;durP2;ratioP2
37791;SDS011;29527;55.766;37.570;2023-05-10T00:01:32;15.73;;;6.70;;
37791;SDS011;29527;55.766;37.570;2023-05-10T00:03:57;18.05;;;6.40;;
37791;SDS011;29527;55.766;37.570;2023-05-10T00:06:23;13.52;;;6.55;;
37791;SDS011;29527;55.766;37.570;2023-05-10T00:08:49;15.68;;;6.90;;
37791;SDS011;29527;55.766;37.570;2023-05-10T00:11:14;13.40;;;7.07;;
37791;SDS011;29527;55.766;37.570;2023-05-10T00:13:40;15.73;;;6.45;;
37791;SDS011;29527;55.766;37.570;2023-05-10T00:16:05;14.32;;;6.40;;
37791;SDS011;29527;55.766;37.570;2023-05-10T00:18:31;14.82;;;6.90;;
37791;SDS011;29527;55.766;37.570;2023-05-10T00:20:57;19.27;;;7.22;;
37791;SDS011;29527;55.766;37.570;2023-05-10T00:23:22;14.98;;;6.90;;
37791;SDS011;29527;55.766;37.570;2023-05-10T00:25:48;17.50;;;7.25;;
37791;SDS011;29527;55.766;37.570;2023-05-10T00:28:13;17.40;;;6.53;;
37791;SDS011;29527;55.766;37.570;2023-05-10T00:30:39;14.73;;;6.70;;
37791;SDS011;29527;55.766;37.570;2023-05-10T00:33:04;14.73;;;6.70;;
37791;SDS011;29527;55.766;37.570;2023-05-10T00:35:30;15.07;;;6.68;;
37791;SDS011;29527;55.766;37.570;2023-05-10T00:37:55;14.65;;;6.43;;
37791;SDS011;29527;55.766;37.570;2023-05-10T00:40:21;13.40;;;6.10;;
37791;SDS011;29527;55.766;37.570;2023-05-10T00:42:46;14.40;;;5.88;;
37791;SDS011;29527;55.766;37.570;2023-05-10T00:45:12;20.10;;;6.15;;
37791;SDS011;29527;55.766;37.570;2023-05-10T00:47:38;13.88;;;6.32;;
37791;SDS011;29527;55.766;37.570;2023-05-10T00:50:04;11.80;;;6.25;;
37791;SDS011;29527;55.766;37.570;2023-05-10T00:52:31;16.92;;;6.38;;
37791;SDS011;29527;55.766;37.570;2023-05-10T00:54:56;14.40;;;6.15;;
37791;SDS011;29527;55.766;37.570;2023-05-10T00:57:22;15.93;;;5.90;;
37791;SDS011;29527;55.766;37.570;2023-05-10T00:59:48;15.55;;;6.30;;
37791;SDS011;29527;55.766;37.570;2023-05-10T01:02:14;13.48;;;6.00;;
37791;SDS011;29527;55.766;37.570;2023-05-10T01:04:40;17.50;;;6.10;;
37791;SDS011;29527;55.766;37.570;2023-05-10T01:07:06;16.40;;;6.53;;
37791;SDS011;29527;55.766;37.570;2023-05-10T01:09:32;15.63;;;6.18;;
37791;SDS011;29527;55.766;37.570;2023-05-10T01:11:58;12.50;;;5.88;;
37791;SDS011;29527;55.766;37.570;2023-05-10T01:14:24;15.00;;;5.97;;
37791;SDS011;29527;55.766;37.570;2023-05-10T01:16:51;14.52;;;6.00;;
37791;SDS011;29527;55.766;37.570;2023-05-10T01:19:27;26.83;;;5.95;;
37791;SDS011;29527;55.766;37.570;2023-05-10T01:24:38;14.85;;;6.22;;
37791;SDS011;29527;55.766;37.570;2023-05-10T01:30:08;13.70;;;5.10;;
37791;SDS011;29527;55.766;37.570;2023-05-10T01:41:59;11.23;;;5.38;;
37791;SDS011;29527;55.766;37.570;2023-05-10T01:44:39;17.65;;;5.45;;
37791;SDS011;29527;55.766;37.570;2023-05-10T01:49:37;11.57;;;5.22;;
37791;SDS011;29527;55.766;37.570;2023-05-10T01:52:08;10.07;;;5.15;;
37791;SDS011;29527;55.766;37.570;2023-05-10T01:54:41;15.30;;;5.38;;
37791;SDS011;29527;55.766;37.570;2023-05-10T01:57:10;14.20;;;5.07;;
37791;SDS011;29527;55.766;37.570;2023-05-10T01:59:39;16.15;;;5.65;;
37791;SDS011;29527;55.766;37.570;2023-05-10T02:02:08;14.25;;;5.15;;
37791;SDS011;29527;55.766;37.570;2023-05-10T02:04:37;18.65;;;5.25;;
37791;SDS011;29527;55.766;37.570;2023-05-10T02:07:05;12.20;;;5.15;;
37791;SDS011;29527;55.766;37.570;2023-05-10T02:09:32;17.33;;;6.07;;
37791;SDS011;29527;55.766;37.570;2023-05-10T02:12:00;14.00;;;5.40;;
37791;SDS011;29527;55.766;37.570;2023-05-10T02:14:28;20.83;;;5.57;;
37791;SDS011;29527;55.766;37.570;2023-05-10T02:17:01;19.30;;;5.57;;
37791;SDS011;29527;55.766;37.570;2023-05-10T02:19:29;18.23;;;6.18;;
37791;SDS011;29527;55.766;37.570;2023-05-10T02:22:17;21.05;;;5.78;;
37791;SDS011;29527;55.766;37.570;2023-05-10T02:24:43;15.48;;;5.53;;
37791;SDS011;29527;55.766;37.570;2023-05-10T02:27:11;16.98;;;5.65;;
37791;SDS011;29527;55.766;37.570;2023-05-10T02:29:38;12.52;;;5.18;;
37791;SDS011;29527;55.766;37.570;2023-05-10T02:32:04;13.13;;;5.63;;
37791;SDS011;29527;55.766;37.570;2023-05-10T02:34:31;18.70;;;5.95;;
37791;SDS011;29527;55.766;37.570;2023-05-10T02:36:57;20.73;;;6.18;;
37791;SDS011;29527;55.766;37.570;2023-05-10T02:39:24;15.90;;;5.53;;
37791;SDS011;29527;55.766;37.570;2023-05-10T02:41:53;15.32;;;5.38;;
37791;SDS011;29527;55.766;37.570;2023-05-10T02:44:20;17.08;;;5.90;;
37791;SDS011;29527;55.766;37.570;2023-05-10T02:46:47;11.15;;;5.43;;
37791;SDS011;29527;55.766;37.570;2023-05-10T02:49:14;14.57;;;5.25;;
37791;SDS011;29527;55.766;37.570;2023-05-10T02:51:42;14.40;;;5.20;;
37791;SDS011;29527;55.766;37.570;2023-05-10T02:54:13;12.32;;;5.25;;
37791;SDS011;29527;55.766;37.570;2023-05-10T02:56:47;9.25;;;4.95;;
37791;SDS011;29527;55.766;37.570;2023-05-10T02:59:16;16.42;;;5.35;;
37791;SDS011;29527;55.766;37.570;2023-05-10T03:01:41;10.38;;;4.90;;
37791;SDS011;29527;55.766;37.570;2023-05-10T03:04:07;11.75;;;5.20;;
37791;SDS011;29527;55.766;37.570;2023-05-10T03:06:33;12.85;;;5.15;;
37791;SDS011;29527;55.766;37.570;2023-05-10T03:08:59;13.32;;;4.95;;
37791;SDS011;29527;55.766;37.570;2023-05-10T03:16:35;8.60;;;4.60;;
37791;SDS011;29527;55.766;37.570;2023-05-10T03:19:24;9.25;;;4.90;;
37791;SDS011;29527;55.766;37.570;2023-05-10T03:22:12;10.05;;;4.95;;
37791;SDS011;29527;55.766;37.570;2023-05-10T03:24:44;11.10;;;4.88;;
37791;SDS011;29527;55.766;37.570;2023-05-10T03:27:12;14.02;;;4.75;;
37791;SDS011;29527;55.766;37.570;2023-05-10T03:29:39;11.38;;;5.07;;
37791;SDS011;29527;55.766;37.570;2023-05-10T03:32:07;10.32;;;4.97;;
37791;SDS011;29527;55.766;37.570;2023-05-10T03:34:33;12.77;;;5.07;;
37791;SDS011;29527;55.766;37.570;2023-05-10T03:36:58;14.68;;;5.10;;
37791;SDS011;29527;55.766;37.570;2023-05-10T03:39:24;15.50;;;5.03;;
37791;SDS011;29527;55.766;37.570;2023-05-10T03:41:50;12.65;;;4.65;;
37791;SDS011;29527;55.766;37.570;2023-05-10T03:44:15;11.05;;;5.20;;
37791;SDS011;29527;55.766;37.570;2023-05-10T03:46:41;9.43;;;4.80;;
37791;SDS011;29527;55.766;37.570;2023-05-10T03:49:06;10.10;;;4.80;;
37791;SDS011;29527;55.766;37.570;2023-05-10T03:51:32;11.63;;;4.90;;
37791;SDS011;29527;55.766;37.570;2023-05-10T03:53:57;9.68;;;5.13;;
37791;SDS011;29527;55.766;37.570;2023-05-10T03:56:23;22.80;;;5.68;;
37791;SDS011;29527;55.766;37.570;2023-05-10T03:58:48;16.63;;;4.65;;
37791;SDS011;29527;55.766;37.570;2023-05-10T04:01:14;13.35;;;4.97;;
37791;SDS011;29527;55.766;37.570;2023-05-10T04:03:39;16.02;;;5.60;;
37791;SDS011;29527;55.766;37.570;2023-05-10T04:06:05;15.75;;;4.78;;
37791;SDS011;29527;55.766;37.570;2023-05-10T04:08:33;7.93;;;4.65;;
37791;SDS011;29527;55.766;37.570;2023-05-10T04:11:09;13.60;;;4.80;;
37791;SDS011;29527;55.766;37.570;2023-05-10T04:13:36;14.23;;;5.53;;
37791;SDS011;29527;55.766;37.570;2023-05-10T04:16:02;9.60;;;4.93;;
37791;SDS011;29527;55.766;37.570;2023-05-10T04:18:27;7.80;;;4.97;;
37791;SDS011;29527;55.766;37.570;2023-05-10T04:20:53;10.70;;;4.70;;
37791;SDS011;29527;55.766;37.570;2023-05-10T04:23:18;11.13;;;5.40;;
37791;SDS011;29527;55.766;37.570;2023-05-10T04:25:44;14.02;;;5.30;;
37791;SDS011;29527;55.766;37.570;2023-05-10T04:28:09;13.70;;;5.03;;
37791;SDS011;29527;55.766;37.570;2023-05-10T04:30:35;13.55;;;5.30;;
37791;SDS011;29527;55.766;37.570;2023-05-10T04:33:00;12.00;;;5.47;;
37791;SDS011;29527;55.766;37.570;2023-05-10T04:35:29;13.77;;;5.25;;
37791;SDS011;29527;55.766;37.570;2023-05-10T04:37:55;16.10;;;5.50;;
37791;SDS011;29527;55.766;37.570;2023-05-10T04:40:20;15.85;;;5.38;;
37791;SDS011;29527;55.766;37.570;2023-05-10T04:42:46;9.15;;;4.63;;
37791;SDS011;29527;55.766;37.570;2023-05-10T04:45:11;11.27;;;4.70;;
37791;SDS011;29527;55.766;37.570;2023-05-10T04:47:37;13.35;;;4.93;;
37791;SDS011;29527;55.766;37.570;2023-05-10T04:50:03;14.68;;;5.03;;
37791;SDS011;29527;55.766;37.570;2023-05-10T04:52:30;11.02;;;4.50;;
37791;SDS011;29527;55.766;37.570;2023-05-10T04:54:55;9.95;;;4.32;;
37791;SDS011;29527;55.766;37.570;2023-05-10T04:57:21;16.65;;;4.63;;
37791;SDS011;29527;55.766;37.570;2023-05-10T04:59:47;11.63;;;4.55;;
37791;SDS011;29527;55.766;37.570;2023-05-10T05:02:13;12.60;;;4.60;;
37791;SDS011;29527;55.766;37.570;2023-05-10T05:04:38;11.32;;;4.75;;
37791;SDS011;29527;55.766;37.570;2023-05-10T05:07:04;12.85;;;4.88;;
37791;SDS011;29527;55.766;37.570;2023-05-10T05:09:29;13.27;;;4.80;;
37791;SDS011;29527;55.766;37.570;2023-05-10T05:11:57;10.90;;;5.00;;
37791;SDS011;29527;55.766;37.570;2023-05-10T05:14:23;17.25;;;5.28;;
37791;SDS011;29527;55.766;37.570;2023-05-10T05:16:50;16.17;;;7.18;;
37791;SDS011;29527;55.766;37.570;2023-05-10T05:19:17;12.95;;;5.20;;
37791;SDS011;29527;55.766;37.570;2023-05-10T05:21:42;15.52;;;4.70;;
37791;SDS011;29527;55.766;37.570;2023-05-10T05:24:08;21.00;;;5.22;;
37791;SDS011;29527;55.766;37.570;2023-05-10T05:26:35;9.23;;;4.32;;
37791;SDS011;29527;55.766;37.570;2023-05-10T05:29:01;19.00;;;5.50;;
37791;SDS011;29527;55.766;37.570;2023-05-10T05:31:27;14.23;;;4.95;;
37791;SDS011;29527;55.766;37.570;2023-05-10T05:33:52;13.60;;;4.95;;
37791;SDS011;29527;55.766;37.570;2023-05-10T05:36:18;12.48;;;4.97;;
37791;SDS011;29527;55.766;37.570;2023-05-10T05:38:43;16.48;;;4.60;;
37791;SDS011;29527;55.766;37.570;2023-05-10T05:41:09;13.90;;;4.68;;
37791;SDS011;29527;55.766;37.570;2023-05-10T05:43:34;9.32;;;4.82;;
37791;SDS011;29527;55.766;37.570;2023-05-10T05:46:00;11.20;;;4.13;;
37791;SDS011;29527;55.766;37.570;2023-05-10T05:48:25;10.77;;;4.30;;
37791;SDS011;29527;55.766;37.570;2023-05-10T05:50:54;11.05;;;4.32;;
37791;SDS011;29527;55.766;37.570;2023-05-10T05:53:21;13.35;;;4.00;;
37791;SDS011;29527;55.766;37.570;2023-05-10T05:55:56;12.85;;;4.10;;
37791;SDS011;29527;55.766;37.570;2023-05-10T05:58:23;15.15;;;4.82;;
37791;SDS011;29527;55.766;37.570;2023-05-10T06:00:49;10.40;;;4.40;;
37791;SDS011;29527;55.766;37.570;2023-05-10T06:03:15;11.63;;;4.68;;
37791;SDS011;29527;55.766;37.570;2023-05-10T06:05:41;12.45;;;4.38;;
37791;SDS011;29527;55.766;37.570;2023-05-10T06:08:06;8.73;;;4.43;;
37791;SDS011;29527;55.766;37.570;2023-05-10T06:10:32;13.10;;;4.00;;
37791;SDS011;29527;55.766;37.570;2023-05-10T06:12:57;13.57;;;3.90;;
37791;SDS011;29527;55.766;37.570;2023-05-10T06:15:42;13.60;;;4.55;;
37791;SDS011;29527;55.766;37.570;2023-05-10T06:18:08;12.00;;;4.03;;
37791;SDS011;29527;55.766;37.570;2023-05-10T06:20:33;12.23;;;4.28;;
37791;SDS011;29527;55.766;37.570;2023-05-10T06:22:59;13.75;;;4.57;;
37791;SDS011;29527;55.766;37.570;2023-05-10T06:25:24;11.10;;;3.95;;
37791;SDS011;29527;55.766;37.570;2023-05-10T06:27:50;14.43;;;4.25;;
37791;SDS011;29527;55.766;37.570;2023-05-10T06:30:15;18.27;;;4.53;;
37791;SDS011;29527;55.766;37.570;2023-05-10T06:32:41;9.27;;;3.70;;
37791;SDS011;29527;55.766;37.570;2023-05-10T06:35:09;16.60;;;3.80;;
37791;SDS011;29527;55.766;37.570;2023-05-10T06:37:34;12.70;;;3.85;;
37791;SDS011;29527;55.766;37.570;2023-05-10T06:40:00;8.07;;;3.70;;
37791;SDS011;29527;55.766;37.570;2023-05-10T06:42:27;15.88;;;4.20;;
37791;SDS011;29527;55.766;37.570;2023-05-10T06:44:53;14.43;;;3.90;;
37791;SDS011;29527;55.766;37.570;2023-05-10T06:47:18;11.43;;;3.55;;
37791;SDS011;29527;55.766;37.570;2023-05-10T06:49:44;9.93;;;3.40;;
37791;SDS011;29527;55.766;37.570;2023-05-10T06:52:09;11.55;;;4.00;;
37791;SDS011;29527;55.766;37.570;2023-05-10T06:54:35;9.65;;;3.80;;
37791;SDS011;29527;55.766;37.570;2023-05-10T06:57:00;10.85;;;3.25;;
37791;SDS011;29527;55.766;37.570;2023-05-10T06:59:28;8.93;;;3.03;;
37791;SDS011;29527;55.766;37.570;2023-05-10T07:01:53;17.30;;;3.38;;
37791;SDS011;29527;55.766;37.570;2023-05-10T07:04:19;14.90;;;3.10;;
37791;SDS011;29527;55.766;37.570;2023-05-10T07:06:44;7.40;;;2.92;;
37791;SDS011;29527;55.766;37.570;2023-05-10T07:09:11;13.13;;;3.35;;
37791;SDS011;29527;55.766;37.570;2023-05-10T07:11:37;8.68;;;2.90;;
37791;SDS011;29527;55.766;37.570;2023-05-10T07:14:02;7.72;;;2.80;;
37791;SDS011;29527;55.766;37.570;2023-05-10T07:16:28;9.50;;;2.83;;
37791;SDS011;29527;55.766;37.570;2023-05-10T07:18:54;6.10;;;2.70;;
37791;SDS011;29527;55.766;37.570;2023-05-10T07:21:19;8.35;;;2.67;;
37791;SDS011;29527;55.766;37.570;2023-05-10T07:23:49;5.68;;;2.67;;
37791;SDS011;29527;55.766;37.570;2023-05-10T07:26:14;11.85;;;3.05;;
37791;SDS011;29527;55.766;37.570;2023-05-10T07:28:40;11.32;;;3.50;;
37791;SDS011;29527;55.766;37.570;2023-05-10T07:31:06;10.02;;;3.47;;
37791;SDS011;29527;55.766;37.570;2023-05-10T07:33:31;8.65;;;2.70;;
37791;SDS011;29527;55.766;37.570;2023-05-10T07:35:57;17.08;;;3.25;;
37791;SDS011;29527;55.766;37.570;2023-05-10T07:38:23;6.07;;;2.72;;
37791;SDS011;29527;55.766;37.570;2023-05-10T07:40:48;6.85;;;2.40;;
37791;SDS011;29527;55.766;37.570;2023-05-10T07:43:14;9.50;;;2.40;;
37791;SDS011;29527;55.766;37.570;2023-05-10T07:45:39;4.97;;;2.35;;
37791;SDS011;29527;55.766;37.570;2023-05-10T07:48:05;5.40;;;2.65;;
37791;SDS011;29527;55.766;37.570;2023-05-10T07:50:30;5.75;;;2.40;;
37791;SDS011;29527;55.766;37.570;2023-05-10T07:52:56;5.47;;;2.45;;
37791;SDS011;29527;55.766;37.570;2023-05-10T07:55:21;6.68;;;2.58;;
37791;SDS011;29527;55.766;37.570;2023-05-10T07:57:47;3.55;;;1.92;;
37791;SDS011;29527;55.766;37.570;2023-05-10T08:00:13;3.85;;;2.22;;
37791;SDS011;29527;55.766;37.570;2023-05-10T08:02:43;7.40;;;2.50;;
37791;SDS011;29527;55.766;37.570;2023-05-10T08:05:08;4.53;;;2.40;;
37791;SDS011;29527;55.766;37.570;2023-05-10T08:07:34;6.05;;;2.72;;
37791;SDS011;29527;55.766;37.570;2023-05-10T08:10:00;3.88;;;2.10;;
37791;SDS011;29527;55.766;37.570;2023-05-10T08:12:31;8.23;;;2.00;;
37791;SDS011;29527;55.766;37.570;2023-05-10T08:14:56;6.03;;;2.45;;
37791;SDS011;29527;55.766;37.570;2023-05-10T08:17:22;3.42;;;2.35;;
37791;SDS011;29527;55.766;37.570;2023-05-10T08:19:47;7.85;;;2.33;;
37791;SDS011;29527;55.766;37.570;2023-05-10T08:22:13;7.38;;;2.72;;
37791;SDS011;29527;55.766;37.570;2023-05-10T08:24:39;7.65;;;2.50;;
37791;SDS011;29527;55.766;37.570;2023-05-10T08:27:05;5.05;;;2.40;;
37791;SDS011;29527;55.766;37.570;2023-05-10T08:29:31;3.42;;;2.10;;
37791;SDS011;29527;55.766;37.570;2023-05-10T08:31:56;8.25;;;2.05;;
37791;SDS011;29527;55.766;37.570;2023-05-10T08:34:22;8.63;;;2.25;;
37791;SDS011;29527;55.766;37.570;2023-05-10T08:36:47;7.65;;;2.28;;
37791;SDS011;29527;55.766;37.570;2023-05-10T08:39:13;3.33;;;2.30;;
37791;SDS011;29527;55.766;37.570;2023-05-10T08:41:39;7.32;;;2.85;;
37791;SDS011;29527;55.766;37.570;2023-05-10T08:44:05;6.15;;;2.90;;
37791;SDS011;29527;55.766;37.570;2023-05-10T08:46:33;9.10;;;2.65;;
37791;SDS011;29527;55.766;37.570;2023-05-10T08:49:04;7.60;;;2.58;;
37791;SDS011;29527;55.766;37.570;2023-05-10T08:51:34;10.13;;;6.63;;
37791;SDS011;29527;55.766;37.570;2023-05-10T08:54:02;5.75;;;2.75;;
37791;SDS011;29527;55.766;37.570;2023-05-10T08:56:29;7.55;;;3.13;;
37791;SDS011;29527;55.766;37.570;2023-05-10T08:58:55;5.65;;;2.60;;
37791;SDS011;29527;55.766;37.570;2023-05-10T09:01:22;3.63;;;2.05;;
37791;SDS011;29527;55.766;37.570;2023-05-10T09:03:49;5.43;;;1.92;;
37791;SDS011;29527;55.766;37.570;2023-05-10T09:06:15;4.65;;;2.30;;
37791;SDS011;29527;55.766;37.570;2023-05-10T09:08:41;5.50;;;2.20;;
37791;SDS011;29527;55.766;37.570;2023-05-10T09:11:08;9.10;;;2.45;;
37791;SDS011;29527;55.766;37.570;2023-05-10T09:13:35;4.90;;;2.05;;
37791;SDS011;29527;55.766;37.570;2023-05-10T09:16:02;6.43;;;2.08;;
37791;SDS011;29527;55.766;37.570;2023-05-10T09:18:28;5.00;;;1.92;;
37791;SDS011;29527;55.766;37.570;2023-05-10T09:20:54;6.78;;;2.40;;
37791;SDS011;29527;55.766;37.570;2023-05-10T09:23:20;10.50;;;2.38;;
37791;SDS011;29527;55.766;37.570;2023-05-10T09:25:45;5.03;;;1.85;;
37791;SDS011;29527;55.766;37.570;2023-05-10T09:28:11;5.30;;;1.80;;
37791;SDS011;29527;55.766;37.570;2023-05-10T09:30:37;4.80;;;2.10;;
37791;SDS011;29527;55.766;37.570;2023-05-10T09:33:03;4.25;;;2.10;;
37791;SDS011;29527;55.766;37.570;2023-05-10T09:35:29;5.32;;;2.03;;
37791;SDS011;29527;55.766;37.570;2023-05-10T09:38:00;7.88;;;2.17;;
37791;SDS011;29527;55.766;37.570;2023-05-10T09:40:28;3.00;;;2.10;;
37791;SDS011;29527;55.766;37.570;2023-05-10T09:43:02;4.78;;;2.20;;
37791;SDS011;29527;55.766;37.570;2023-05-10T09:45:33;4.72;;;1.95;;
37791;SDS011;29527;55.766;37.570;2023-05-10T09:48:03;3.53;;;2.00;;
37791;SDS011;29527;55.766;37.570;2023-05-10T09:50:29;3.10;;;2.22;;
37791;SDS011;29527;55.766;37.570;2023-05-10T09:52:56;5.93;;;2.17;;
37791;SDS011;29527;55.766;37.570;2023-05-10T09:55:37;8.05;;;2.70;;
37791;SDS011;29527;55.766;37.570;2023-05-10T09:58:05;4.63;;;2.60;;
37791;SDS011;29527;55.766;37.570;2023-05-10T10:00:35;4.35;;;2.45;;
37791;SDS011;29527;55.766;37.570;2023-05-10T10:03:02;4.10;;;2.38;;
37791;SDS011;29527;55.766;37.570;2023-05-10T10:05:32;5.05;;;2.65;;
37791;SDS011;29527;55.766;37.570;2023-05-10T10:07:59;2.67;;;2.40;;
37791;SDS011;29527;55.766;37.570;2023-05-10T10:10:26;9.13;;;2.35;;
37791;SDS011;29527;55.766;37.570;2023-05-10T10:12:53;5.88;;;2.30;;
37791;SDS011;29527;55.766;37.570;2023-05-10T10:15:19;8.07;;;2.50;;
37791;SDS011;29527;55.766;37.570;2023-05-10T10:17:45;7.97;;;2.53;;
37791;SDS011;29527;55.766;37.570;2023-05-10T10:20:12;6.15;;;2.78;;
37791;SDS011;29527;55.766;37.570;2023-05-10T10:22:37;6.22;;;2.47;;
37791;SDS011;29527;55.766;37.570;2023-05-10T10:25:04;5.20;;;2.38;;
37791;SDS011;29527;55.766;37.570;2023-05-10T10:27:34;4.85;;;2.58;;
37791;SDS011;29527;55.766;37.570;2023-05-10T10:30:13;5.47;;;2.33;;
37791;SDS011;29527;55.766;37.570;2023-05-10T10:33:01;3.55;;;1.90;;
37791;SDS011;29527;55.766;37.570;2023-05-10T10:35:50;4.75;;;2.22;;
37791;SDS011;29527;55.766;37.570;2023-05-10T10:38:17;5.18;;;2.42;;
37791;SDS011;29527;55.766;37.570;2023-05-10T10:40:42;5.35;;;2.42;;
37791;SDS011;29527;55.766;37.570;2023-05-10T10:43:24;6.13;;;2.78;;
37791;SDS011;29527;55.766;37.570;2023-05-10T10:48:51;4.68;;;2.25;;
37791;SDS011;29527;55.766;37.570;2023-05-10T10:51:37;5.25;;;2.22;;
37791;SDS011;29527;55.766;37.570;2023-05-10T10:54:09;3.67;;;2.30;;
37791;SDS011;29527;55.766;37.570;2023-05-10T10:56:36;5.55;;;2.50;;
37791;SDS011;29527;55.766;37.570;2023-05-10T10:59:01;6.10;;;2.15;;
37791;SDS011;29527;55.766;37.570;2023-05-10T11:01:27;6.03;;;2.85;;
37791;SDS011;29527;55.766;37.570;2023-05-10T11:06:31;5.28;;;2.08;;
37791;SDS011;29527;55.766;37.570;2023-05-10T11:08:58;7.20;;;1.93;;
37791;SDS011;29527;55.766;37.570;2023-05-10T11:11:24;6.30;;;1.83;;
37791;SDS011;29527;55.766;37.570;2023-05-10T11:13:50;9.85;;;2.45;;
37791;SDS011;29527;55.766;37.570;2023-05-10T11:21:44;5.32;;;2.10;;
37791;SDS011;29527;55.766;37.570;2023-05-10T11:24:18;4.97;;;2.15;;
37791;SDS011;29527;55.766;37.570;2023-05-10T11:26:49;4.28;;;1.90;;
37791;SDS011;29527;55.766;37.570;2023-05-10T11:29:16;4.18;;;2.08;;
37791;SDS011;29527;55.766;37.570;2023-05-10T11:31:42;3.75;;;1.83;;
37791;SDS011;29527;55.766;37.570;2023-05-10T11:34:10;6.45;;;2.05;;
37791;SDS011;29527;55.766;37.570;2023-05-10T11:36:36;4.68;;;2.03;;
37791;SDS011;29527;55.766;37.570;2023-05-10T11:39:02;5.18;;;2.28;;
37791;SDS011;29527;55.766;37.570;2023-05-10T11:41:28;5.82;;;2.33;;
37791;SDS011;29527;55.766;37.570;2023-05-10T11:43:55;6.63;;;2.35;;
37791;SDS011;29527;55.766;37.570;2023-05-10T11:46:23;7.55;;;2.20;;
37791;SDS011;29527;55.766;37.570;2023-05-10T11:48:56;6.05;;;1.90;;
37791;SDS011;29527;55.766;37.570;2023-05-10T11:51:24;2.63;;;1.85;;
37791;SDS011;29527;55.766;37.570;2023-05-10T11:53:53;5.13;;;2.03;;
37791;SDS011;29527;55.766;37.570;2023-05-10T11:56:20;3.15;;;1.83;;
37791;SDS011;29527;55.766;37.570;2023-05-10T11:58:51;6.47;;;2.13;;
37791;SDS011;29527;55.766;37.570;2023-05-10T12:01:18;3.22;;;1.85;;
37791;SDS011;29527;55.766;37.570;2023-05-10T12:03:43;5.70;;;1.88;;
37791;SDS011;29527;55.766;37.570;2023-05-10T12:06:09;5.65;;;2.10;;
37791;SDS011;29527;55.766;37.570;2023-05-10T12:08:35;5.57;;;2.50;;
37791;SDS011;29527;55.766;37.570;2023-05-10T12:11:05;4.75;;;2.80;;
37791;SDS011;29527;55.766;37.570;2023-05-10T12:13:32;6.85;;;2.20;;
37791;SDS011;29527;55.766;37.570;2023-05-10T12:15:57;6.32;;;2.42;;
37791;SDS011;29527;55.766;37.570;2023-05-10T12:18:24;10.50;;;2.67;;
37791;SDS011;29527;55.766;37.570;2023-05-10T12:20:53;5.55;;;2.33;;
37791;SDS011;29527;55.766;37.570;2023-05-10T12:23:19;4.00;;;2.50;;
37791;SDS011;29527;55.766;37.570;2023-05-10T12:25:45;8.10;;;2.40;;
37791;SDS011;29527;55.766;37.570;2023-05-10T12:28:11;3.33;;;2.13;;
37791;SDS011;29527;55.766;37.570;2023-05-10T12:30:37;3.53;;;2.30;;
37791;SDS011;29527;55.766;37.570;2023-05-10T12:33:07;5.78;;;2.25;;
37791;SDS011;29527;55.766;37.570;2023-05-10T12:35:43;2.75;;;2.05;;
37791;SDS011;29527;55.766;37.570;2023-05-10T12:38:24;4.18;;;1.95;;
37791;SDS011;29527;55.766;37.570;2023-05-10T12:40:50;9.60;;;2.60;;
37791;SDS011;29527;55.766;37.570;2023-05-10T12:43:16;4.13;;;2.35;;
37791;SDS011;29527;55.766;37.570;2023-05-10T12:45:41;7.60;;;2.30;;
37791;SDS011;29527;55.766;37.570;2023-05-10T12:48:07;7.13;;;2.63;;
37791;SDS011;29527;55.766;37.570;2023-05-10T12:50:32;9.88;;;2.45;;
37791;SDS011;29527;55.766;37.570;2023-05-10T12:52:58;8.38;;;2.47;;
37791;SDS011;29527;55.766;37.570;2023-05-10T12:55:23;5.45;;;2.20;;
37791;SDS011;29527;55.766;37.570;2023-05-10T12:57:49;5.90;;;2.38;;
37791;SDS011;29527;55.766;37.570;2023-05-10T13:00:14;3.35;;;2.20;;
37791;SDS011;29527;55.766;37.570;2023-05-10T13:02:40;6.10;;;3.00;;
37791;SDS011;29527;55.766;37.570;2023-05-10T13:05:06;6.63;;;2.30;;
37791;SDS011;29527;55.766;37.570;2023-05-10T13:07:32;7.60;;;2.55;;
37791;SDS011;29527;55.766;37.570;2023-05-10T13:09:57;6.97;;;2.42;;
37791;SDS011;29527;55.766;37.570;2023-05-10T13:12:23;8.57;;;2.80;;
37791;SDS011;29527;55.766;37.570;2023-05-10T13:14:48;6.30;;;2.10;;
37791;SDS011;29527;55.766;37.570;2023-05-10T13:17:14;7.30;;;2.28;;
37791;SDS011;29527;55.766;37.570;2023-05-10T13:19:39;3.80;;;1.88;;
37791;SDS011;29527;55.766;37.570;2023-05-10T13:22:05;6.88;;;2.30;;
37791;SDS011;29527;55.766;37.570;2023-05-10T13:24:30;7.10;;;2.40;;
37791;SDS011;29527;55.766;37.570;2023-05-10T13:26:56;4.70;;;1.95;;
37791;SDS011;29527;55.766;37.570;2023-05-10T13:29:21;7.25;;;2.42;;
37791;SDS011;29527;55.766;37.570;2023-05-10T13:31:47;4.57;;;2.20;;
37791;SDS011;29527;55.766;37.570;2023-05-10T13:34:13;4.32;;;1.73;;
37791;SDS011;29527;55.766;37.570;2023-05-10T13:36:38;3.22;;;1.60;;
37791;SDS011;29527;55.766;37.570;2023-05-10T13:39:04;9.63;;;2.72;;
37791;SDS011;29527;55.766;37.570;2023-05-10T13:41:30;5.93;;;2.17;;
37791;SDS011;29527;55.766;37.570;2023-05-10T13:43:56;7.63;;;2.40;;
37791;SDS011;29527;55.766;37.570;2023-05-10T13:46:21;4.45;;;2.00;;
37791;SDS011;29527;55.766;37.570;2023-05-10T13:48:47;4.50;;;1.90;;
37791;SDS011;29527;55.766;37.570;2023-05-10T13:51:12;6.20;;;2.42;;
37791;SDS011;29527;55.766;37.570;2023-05-10T13:53:38;9.93;;;2.58;;
37791;SDS011;29527;55.766;37.570;2023-05-10T13:59:04;2.17;;;1.75;;
37791;SDS011;29527;55.766;37.570;2023-05-10T14:01:29;6.18;;;2.50;;
37791;SDS011;29527;55.766;37.570;2023-05-10T14:03:55;10.25;;;2.38;;
37791;SDS011;29527;55.766;37.570;2023-05-10T14:06:21;6.10;;;2.33;;
37791;SDS011;29527;55.766;37.570;2023-05-10T14:08:47;8.05;;;2.40;;
37791;SDS011;29527;55.766;37.570;2023-05-10T14:11:12;6.35;;;2.65;;
37791;SDS011;29527;55.766;37.570;2023-05-10T14:13:38;5.60;;;2.13;;
37791;SDS011;29527;55.766;37.570;2023-05-10T14:16:04;6.97;;;2.30;;
37791;SDS011;29527;55.766;37.570;2023-05-10T14:18:30;5.57;;;2.05;;
37791;SDS011;29527;55.766;37.570;2023-05-10T14:20:55;6.45;;;2.30;;
37791;SDS011;29527;55.766;37.570;2023-05-10T14:23:21;4.05;;;2.42;;
37791;SDS011;29527;55.766;37.570;2023-05-10T14:25:50;4.70;;;2.22;;
37791;SDS011;29527;55.766;37.570;2023-05-10T14:28:16;8.63;;;2.50;;
37791;SDS011;29527;55.766;37.570;2023-05-10T14:30:43;12.75;;;2.75;;
37791;SDS011;29527;55.766;37.570;2023-05-10T14:33:09;9.23;;;2.40;;
37791;SDS011;29527;55.766;37.570;2023-05-10T14:35:35;6.82;;;2.40;;
37791;SDS011;29527;55.766;37.570;2023-05-10T14:38:01;5.03;;;2.45;;
37791;SDS011;29527;55.766;37.570;2023-05-10T14:40:28;6.75;;;2.47;;
37791;SDS011;29527;55.766;37.570;2023-05-10T14:42:54;4.07;;;2.53;;
37791;SDS011;29527;55.766;37.570;2023-05-10T14:45:20;5.15;;;2.10;;
37791;SDS011;29527;55.766;37.570;2023-05-10T14:47:46;4.47;;;1.98;;
37791;SDS011;29527;55.766;37.570;2023-05-10T14:50:11;6.72;;;2.20;;
37791;SDS011;29527;55.766;37.570;2023-05-10T14:55:59;14.73;;;2.50;;
37791;SDS011;29527;55.766;37.570;2023-05-10T14:58:26;12.68;;;2.50;;
37791;SDS011;29527;55.766;37.570;2023-05-10T15:00:52;6.03;;;2.40;;
37791;SDS011;29527;55.766;37.570;2023-05-10T15:03:18;5.97;;;2.72;;
37791;SDS011;29527;55.766;37.570;2023-05-10T15:05:43;7.65;;;2.55;;
37791;SDS011;29527;55.766;37.570;2023-05-10T15:08:09;7.70;;;2.40;;